Time;durP1;ratioP1;P1;durP2;ratioP2;P2;SDS_P1;SDS_P2;PMS_P1;PMS_P2;Temp;Humidity;BMP_temperature;BMP_pressure;BME280_temperature;BME280_humidity;BME280_pressure;Samples;Min_cycle;Max_cycle;Signal;HPM_P1;HPM_P2
2023/04/02 00:02:26;;;;;;;29.30;19.00;;;;;;;8.56;100.00;97934.27;269902;1268;22592;-86
2023/04/02 00:08:39;;;;;;;37.80;22.00;;;;;;;8.54;100.00;97932.54;273553;1267;22477;-84
2023/04/02 00:14:53;;;;;;;39.00;23.90;;;;;;;8.52;100.00;97934.17;271207;1262;22537;-85
2023/04/02 00:21:19;;;;;;;38.30;24.00;;;;;;;8.54;100.00;97938.54;270395;1269;22740;-85
2023/04/02 00:27:20;;;;;;;41.60;25.90;;;;;;;8.56;100.00;97938.46;270380;1260;22660;-84
2023/04/02 00:33:25;;;;;;;37.80;24.60;;;;;;;8.58;100.00;97941.74;270089;1260;22527;-85
2023/04/02 00:39:30;;;;;;;39.80;26.20;;;;;;;8.58;100.00;97944.94;271163;1268;23146;-85
2023/04/02 00:45:34;;;;;;;37.90;24.90;;;;;;;8.60;100.00;97945.56;270537;1269;23421;-84
2023/04/02 00:51:45;;;;;;;36.90;24.00;;;;;;;8.60;100.00;97952.13;269868;1255;24200;-84
2023/04/02 00:57:49;;;;;;;40.20;26.40;;;;;;;8.57;100.00;97956.00;269141;1257;22583;-84
2023/04/02 01:03:59;;;;;;;41.90;26.20;;;;;;;8.57;100.00;97962.09;269754;1268;22501;-85
2023/04/02 01:10:09;;;;;;;46.40;27.40;;;;;;;8.57;100.00;97967.54;269908;1255;23278;-84
2023/04/02 01:16:14;;;;;;;40.80;28.30;;;;;;;8.56;100.00;97973.15;270552;1268;22539;-84
2023/04/02 01:22:22;;;;;;;41.50;26.50;;;;;;;8.56;100.00;97975.87;271628;1268;23169;-85
2023/04/02 01:28:43;;;;;;;42.30;26.50;;;;;;;8.55;100.00;97975.48;271964;1267;22654;-84
2023/04/02 01:34:46;;;;;;;42.10;26.30;;;;;;;8.57;100.00;97977.44;273559;1268;23535;-85
2023/04/02 01:40:59;;;;;;;41.40;27.90;;;;;;;8.57;100.00;97981.65;273941;1268;23239;-85
2023/04/02 01:47:02;;;;;;;49.20;29.90;;;;;;;8.56;100.00;97978.83;273400;1255;22618;-85
2023/04/02 01:53:24;;;;;;;43.20;28.30;;;;;;;8.52;100.00;97979.60;273697;1258;22220;-86
2023/04/02 01:59:27;;;;;;;55.60;33.00;;;;;;;8.50;100.00;97978.36;273820;1258;23307;-85
2023/04/02 02:05:37;;;;;;;49.40;31.50;;;;;;;8.52;100.00;97984.83;273621;1256;23391;-85
2023/04/02 02:11:40;;;;;;;45.50;29.20;;;;;;;8.51;100.00;97993.33;273698;1269;22434;-86
2023/04/02 02:17:41;;;;;;;40.00;26.10;;;;;;;8.49;100.00;97994.41;273628;1268;22344;-85
2023/04/02 02:23:42;;;;;;;41.30;25.90;;;;;;;8.48;100.00;98002.66;273888;1268;22345;-85
2023/04/02 02:29:46;;;;;;;40.50;26.60;;;;;;;8.50;100.00;98003.22;272012;1267;24261;-85
2023/04/02 02:36:36;;;;;;;44.70;26.80;;;;;;;8.49;100.00;98003.60;270741;1268;24511;-84
2023/04/02 02:43:03;;;;;;;42.20;26.10;;;;;;;8.49;100.00;98005.00;270610;1256;22765;-85
2023/04/02 02:49:06;;;;;;;40.80;26.50;;;;;;;8.48;100.00;98009.91;270073;1260;25546;-86
2023/04/02 02:55:09;;;;;;;40.40;27.70;;;;;;;8.46;100.00;98014.42;270465;1268;22857;-84
2023/04/02 03:01:30;;;;;;;48.20;28.80;;;;;;;8.44;100.00;98019.64;272225;1259;22348;-85
2023/04/02 03:08:14;;;;;;;52.70;27.90;;;;;;;8.41;100.00;98027.73;271071;1268;22553;-85
2023/04/02 03:14:41;;;;;;;45.30;27.70;;;;;;;8.38;100.00;98030.83;270396;1267;23110;-84
2023/04/02 03:21:01;;;;;;;40.10;25.00;;;;;;;8.30;100.00;98037.34;270276;1268;22620;-84
2023/04/02 03:27:27;;;;;;;39.60;22.50;;;;;;;8.22;100.00;98035.95;270337;1255;22223;-84
2023/04/02 03:33:31;;;;;;;36.20;22.40;;;;;;;8.16;100.00;98038.80;272496;1268;22324;-85
2023/04/02 03:40:00;;;;;;;29.80;20.60;;;;;;;8.11;100.00;98048.58;273931;1268;22196;-85
2023/04/02 03:46:23;;;;;;;26.00;16.20;;;;;;;8.08;100.00;98050.66;273733;1261;22563;-85
2023/04/02 03:52:28;;;;;;;25.70;16.20;;;;;;;8.07;100.00;98056.17;273717;1261;22384;-85
2023/04/02 03:59:10;;;;;;;24.90;15.50;;;;;;;8.04;100.00;98061.77;273688;1258;23460;-85
2023/04/02 04:06:09;;;;;;;28.00;16.80;;;;;;;8.05;100.00;98068.71;273538;1268;22398;-84
2023/04/02 04:12:40;;;;;;;27.60;18.70;;;;;;;8.07;100.00;98073.46;272053;1258;22503;-84
2023/04/02 04:19:37;;;;;;;25.10;15.80;;;;;;;8.07;100.00;98077.76;271749;1268;22565;-85
2023/04/02 04:25:39;;;;;;;24.40;15.90;;;;;;;8.04;100.00;98087.25;273583;1268;22705;-85
2023/04/02 04:32:32;;;;;;;25.30;16.40;;;;;;;8.00;100.00;98091.19;273633;1267;22195;-86
2023/04/02 04:38:43;;;;;;;25.60;15.70;;;;;;;7.98;100.00;98098.11;273581;1268;22465;-84
2023/04/02 04:45:32;;;;;;;23.00;14.70;;;;;;;7.96;100.00;98107.81;273888;1257;22323;-84
2023/04/02 04:52:05;;;;;;;23.80;15.50;;;;;;;7.92;100.00;98114.33;271990;1268;22543;-84
2023/04/02 04:58:18;;;;;;;25.00;15.50;;;;;;;7.92;100.00;98122.44;270582;1268;24359;-84
2023/04/02 05:04:44;;;;;;;26.80;16.40;;;;;;;7.91;100.00;98128.11;270214;1261;22586;-84
2023/04/02 05:11:10;;;;;;;24.60;16.40;;;;;;;7.89;100.00;98134.00;270795;1267;22574;-86
2023/04/02 05:17:31;;;;;;;26.70;16.50;;;;;;;7.86;100.00;98139.29;273641;1259;22378;-84
2023/04/02 05:24:17;;;;;;;25.30;15.80;;;;;;;7.85;100.00;98143.55;271038;1258;22547;-84
2023/04/02 05:30:31;;;;;;;22.60;15.50;;;;;;;7.82;100.00;98153.64;270345;1267;22536;-84
2023/04/02 05:36:33;;;;;;;22.70;16.20;;;;;;;7.81;100.00;98158.46;270480;1268;127356;-84
2023/04/02 05:42:36;;;;;;;19.70;14.10;;;;;;;7.83;100.00;98164.41;270592;1260;22544;-83
2023/04/02 05:49:47;;;;;;;19.40;14.00;;;;;;;7.86;100.00;98166.92;270514;1269;22302;-83
2023/04/02 05:56:00;;;;;;;21.30;14.40;;;;;;;7.86;100.00;98171.44;272104;1269;22546;-83
2023/04/02 06:02:29;;;;;;;21.00;14.60;;;;;;;7.84;100.00;98175.23;271535;1261;22203;-83
2023/04/02 06:08:54;;;;;;;24.90;15.30;;;;;;;7.81;100.00;98178.70;272394;1268;22347;-84
2023/04/02 06:15:05;;;;;;;23.60;15.40;;;;;;;7.79;100.00;98180.79;273687;1258;22555;-86
2023/04/02 06:21:08;;;;;;;20.50;14.30;;;;;;;7.83;100.00;98186.51;270266;1259;24227;-84
2023/04/02 06:27:12;;;;;;;23.40;16.20;;;;;;;7.91;100.00;98194.36;270835;1261;22707;-83
2023/04/02 06:33:34;;;;;;;25.90;16.30;;;;;;;7.96;100.00;98199.48;270660;1258;23433;-83
2023/04/02 06:39:44;;;;;;;24.10;16.60;;;;;;;7.94;100.00;98204.52;270255;1268;24209;-83
2023/04/02 06:45:52;;;;;;;26.70;17.50;;;;;;;7.88;100.00;98203.84;270167;1264;25220;-84
2023/04/02 06:52:26;;;;;;;30.00;18.60;;;;;;;7.92;100.00;98210.10;271145;1268;22544;-83
2023/04/02 06:58:28;;;;;;;26.20;17.20;;;;;;;8.12;100.00;98217.61;271063;1260;22568;-83
2023/04/02 07:04:30;;;;;;;29.00;18.20;;;;;;;8.34;100.00;98220.14;273361;1268;22228;-84
2023/04/02 07:10:33;;;;;;;22.00;15.60;;;;;;;8.42;100.00;98228.77;273564;1269;22214;-84
2023/04/02 07:16:36;;;;;;;21.90;14.70;;;;;;;8.45;100.00;98234.94;273555;1267;23413;-86
2023/04/02 07:22:40;;;;;;;21.20;14.80;;;;;;;8.44;100.00;98236.10;273557;1268;22543;-84
2023/04/02 07:28:41;;;;;;;19.50;14.00;;;;;;;8.46;100.00;98241.04;270310;1263;25321;-83
2023/04/02 07:34:45;;;;;;;17.80;12.00;;;;;;;8.40;100.00;98251.52;270465;1258;22555;-83
2023/04/02 07:40:50;;;;;;;18.00;11.70;;;;;;;8.37;100.00;98262.55;272882;1268;23283;-83
2023/04/02 07:46:54;;;;;;;13.20;8.80;;;;;;;8.44;100.00;98267.12;273100;1268;22575;-83
2023/04/02 07:52:55;;;;;;;15.00;9.90;;;;;;;8.48;100.00;98270.88;273363;1269;22186;-84
2023/04/02 07:58:57;;;;;;;15.10;10.00;;;;;;;8.51;100.00;98279.41;273606;1269;22522;-84
2023/04/02 08:04:58;;;;;;;14.30;9.70;;;;;;;8.49;100.00;98288.98;273862;1263;22491;-85
2023/04/02 08:10:59;;;;;;;16.40;10.00;;;;;;;8.47;100.00;98302.13;273665;1267;22253;-85
2023/04/02 08:17:00;;;;;;;12.50;9.60;;;;;;;8.44;100.00;98318.33;273938;1268;22476;-85
2023/04/02 08:23:02;;;;;;;13.90;9.00;;;;;;;8.30;100.00;98332.99;273875;1258;22357;-84
2023/04/02 08:29:03;;;;;;;13.50;9.90;;;;;;;8.15;100.00;98337.98;272869;1269;22316;-84
2023/04/02 08:35:05;;;;;;;28.10;13.50;;;;;;;8.03;100.00;98346.71;273812;1268;22390;-84
2023/04/02 08:41:06;;;;;;;29.10;13.60;;;;;;;8.01;100.00;98358.52;271203;1268;23820;-83
2023/04/02 08:47:08;;;;;;;7.00;4.50;;;;;;;7.95;100.00;98377.85;270778;1268;24215;-83
2023/04/02 08:53:53;;;;;;;3.80;2.50;;;;;;;7.46;100.00;98401.73;273314;1266;22838;-84
2023/04/02 09:00:50;;;;;;;3.80;1.60;;;;;;;6.83;100.00;98417.19;272890;1269;22552;-83
2023/04/02 09:06:56;;;;;;;15.40;5.10;;;;;;;6.54;100.00;98428.27;272907;1266;25455;-84
2023/04/02 09:12:59;;;;;;;11.10;3.70;;;;;;;6.48;100.00;98441.84;271895;1268;22553;-83
2023/04/02 09:19:01;;;;;;;4.70;2.30;;;;;;;6.48;100.00;98450.06;272602;1269;23376;-86
2023/04/02 09:25:04;;;;;;;14.60;4.10;;;;;;;6.42;100.00;98461.93;273250;1269;23262;-83
2023/04/02 09:31:26;;;;;;;2.20;1.00;;;;;;;6.25;100.00;98476.36;273356;1269;22475;-83
2023/04/02 09:52:35;;;;;;;4.10;2.00;;;;;;;6.20;100.00;98516.57;262507;1292;5553633;-83
2023/04/02 09:59:18;;;;;;;5.00;1.80;;;;;;;6.08;100.00;98540.37;271612;1263;22545;-81
2023/04/02 10:05:40;;;;;;;3.10;1.20;;;;;;;5.89;100.00;98553.77;273028;1266;23104;-81
2023/04/02 10:18:55;;;;;;;2.40;1.50;;;;;;;5.85;100.00;98579.38;269291;1283;80286;-91
2023/04/02 10:25:01;;;;;;;5.00;2.30;;;;;;;5.87;100.00;98587.03;270542;1287;22209;-91
2023/04/02 10:31:39;;;;;;;2.60;1.50;;;;;;;5.91;100.00;98604.20;270837;1282;22599;-90
2023/04/02 10:38:09;;;;;;;3.70;1.60;;;;;;;5.92;100.00;98610.66;269624;1282;22321;-91
2023/04/02 10:44:32;;;;;;;3.20;1.60;;;;;;;5.93;100.00;98618.83;271154;1282;22305;-93
2023/04/02 10:50:43;;;;;;;4.60;2.00;;;;;;;5.93;100.00;98624.59;269114;1282;22570;-92
2023/04/02 10:56:45;;;;;;;4.20;1.90;;;;;;;5.96;100.00;98636.38;270771;1281;23610;-92
2023/04/02 11:02:55;;;;;;;3.90;2.10;;;;;;;6.02;100.00;98646.30;269178;1282;22243;-90
2023/04/02 11:09:03;;;;;;;4.20;1.40;;;;;;;6.13;100.00;98652.55;268650;1282;22653;-90
2023/04/02 11:15:18;;;;;;;2.50;1.60;;;;;;;6.22;100.00;98664.63;267708;1281;22785;-90
2023/04/02 11:21:29;;;;;;;2.60;1.60;;;;;;;6.13;100.00;98675.89;267654;1281;23492;-88
2023/04/02 11:27:33;;;;;;;4.20;2.60;;;;;;;5.91;100.00;98680.19;268753;1282;22661;-92
2023/04/02 11:33:41;;;;;;;3.00;1.40;;;;;;;5.90;100.00;98693.81;267944;1282;23255;-90
2023/04/02 11:39:52;;;;;;;6.40;2.80;;;;;;;5.89;100.00;98703.48;268141;1282;22597;-91
2023/04/02 11:45:55;;;;;;;3.70;2.60;;;;;;;5.74;100.00;98716.90;268327;1281;22388;-92
2023/04/02 11:51:57;;;;;;;3.10;2.40;;;;;;;5.58;100.00;98726.58;271204;1271;22189;-92
2023/04/02 11:58:04;;;;;;;2.60;1.60;;;;;;;5.59;100.00;98734.76;269692;1282;22694;-92
2023/04/02 12:04:28;;;;;;;4.70;1.90;;;;;;;5.73;100.00;98742.32;271376;1283;22251;-90
2023/04/02 12:10:50;;;;;;;3.20;1.80;;;;;;;5.79;100.00;98741.02;270086;1282;23627;-92
2023/04/02 12:32:02;;;;;;;8.20;4.70;;;;;;;6.10;100.00;98751.52;268971;1282;22548;-92
2023/04/02 13:26:12;;;;;;;12.10;8.10;;;;;;;5.50;100.00;98800.89;268029;1282;23897;-90
2023/04/02 13:48:02;;;;;;;14.60;8.50;;;;;;;5.47;100.00;98816.79;268024;1282;22867;-89
2023/04/02 14:10:31;;;;;;;8.60;6.30;;;;;;;5.30;100.00;98839.35;268219;1283;22598;-89
2023/04/02 14:17:03;;;;;;;7.10;5.50;;;;;;;5.22;100.00;98840.28;268416;1284;24729;-89
2023/04/02 14:23:08;;;;;;;8.50;5.70;;;;;;;5.14;100.00;98845.92;267287;1284;23699;-91
2023/04/02 14:29:31;;;;;;;12.60;5.50;;;;;;;5.10;100.00;98857.25;268027;1283;22352;-90
2023/04/02 14:35:36;;;;;;;8.50;5.60;;;;;;;5.07;100.00;98866.25;268793;1284;22684;-91
2023/04/02 14:42:02;;;;;;;5.40;3.90;;;;;;;5.12;100.00;98872.52;269336;1282;22223;-90
2023/04/02 14:48:46;;;;;;;6.70;4.20;;;;;;;5.18;100.00;98875.98;268018;1282;22503;-91
2023/04/02 14:54:56;;;;;;;6.30;3.80;;;;;;;5.20;100.00;98885.41;268327;1282;22104;-91
2023/04/02 15:01:02;;;;;;;6.00;4.40;;;;;;;5.12;100.00;98888.66;268395;1282;23328;-88
2023/04/02 15:07:33;;;;;;;8.20;5.00;;;;;;;5.13;100.00;98894.02;267770;1282;23461;-90
2023/04/02 15:13:53;;;;;;;6.60;4.00;;;;;;;5.20;100.00;98894.88;267879;1281;22312;-91
2023/04/02 15:20:13;;;;;;;7.10;4.50;;;;;;;5.18;100.00;98898.23;268798;1281;22503;-90
2023/04/02 15:26:21;;;;;;;10.00;6.80;;;;;;;5.12;100.00;98911.30;268003;1283;23142;-90
2023/04/02 15:32:39;;;;;;;5.30;3.80;;;;;;;5.05;100.00;98924.23;268455;1282;22622;-92
2023/04/02 15:38:44;;;;;;;7.10;4.30;;;;;;;4.91;100.00;98939.52;269366;1282;22542;-89
2023/04/02 15:52:56;;;;;;;7.50;5.10;;;;;;;4.67;100.00;98956.11;269754;1282;22383;-88
2023/04/02 15:59:12;;;;;;;11.70;6.90;;;;;;;4.66;100.00;98965.12;268405;1281;22438;-89
2023/04/02 16:10:01;;;;;;;;;;;;;;;;;;;;;
2023/04/02 16:16:11;;;;;;;12.60;9.30;;;;;;;4.59;100.00;98988.61;268511;1280;22573;-90
2023/04/02 16:22:23;;;;;;;11.60;8.40;;;;;;;4.46;100.00;99000.14;268255;1278;143104;-91
2023/04/02 16:28:33;;;;;;;11.30;9.10;;;;;;;4.32;100.00;99006.02;269716;1277;22455;-89
2023/04/02 16:35:11;;;;;;;16.70;10.90;;;;;;;4.23;100.00;99014.44;271388;1266;22219;-88
2023/04/02 16:41:16;;;;;;;14.90;10.40;;;;;;;4.14;100.00;99023.71;270434;1266;22401;-88
2023/04/02 16:47:43;;;;;;;15.10;11.70;;;;;;;4.07;100.00;99031.55;272142;1252;24205;-88
2023/04/02 16:53:59;;;;;;;17.70;12.30;;;;;;;4.00;100.00;99040.76;271720;1267;22489;-88
2023/04/02 17:00:17;;;;;;;18.60;12.30;;;;;;;4.02;100.00;99050.71;272189;1265;23089;-90
2023/04/02 17:06:42;;;;;;;16.80;11.90;;;;;;;4.04;100.00;99059.77;271536;1265;22608;-91
2023/04/02 17:12:50;;;;;;;20.50;14.40;;;;;;;4.07;100.00;99068.27;271424;1265;22181;-89
2023/04/02 17:18:56;;;;;;;19.00;12.50;;;;;;;4.09;100.00;99075.76;271092;1265;23485;-89
2023/04/02 17:25:00;;;;;;;19.40;13.10;;;;;;;4.04;100.00;99077.48;271106;1266;22403;-90
2023/04/02 17:31:17;;;;;;;17.50;11.80;;;;;;;3.97;100.00;99084.59;272594;1265;22408;-87
2023/04/02 17:37:39;;;;;;;18.80;12.80;;;;;;;3.86;100.00;99092.69;271350;1265;22535;-89
2023/04/02 17:43:52;;;;;;;20.00;13.50;;;;;;;3.79;100.00;99103.48;256545;1266;20004837;-89
2023/04/02 17:50:08;;;;;;;19.70;13.20;;;;;;;3.78;100.00;99114.02;272173;1266;22519;-90
2023/04/02 17:56:40;;;;;;;19.50;13.00;;;;;;;3.74;100.00;99119.14;271770;1266;22420;-92
2023/04/02 18:02:50;;;;;;;16.80;12.20;;;;;;;3.70;100.00;99126.23;272778;1254;22501;-91
2023/04/02 18:09:00;;;;;;;18.00;11.90;;;;;;;3.67;100.00;99128.03;272521;1266;22709;-91
2023/04/02 18:15:24;;;;;;;16.40;11.20;;;;;;;3.65;100.00;99133.00;271416;1265;22521;-89
2023/04/02 18:21:41;;;;;;;19.50;12.30;;;;;;;3.59;100.00;99147.10;272077;1265;25297;-90
2023/04/02 18:27:48;;;;;;;;;;;;;;;3.52;100.00;99156.81;271224;1265;22994;-89
2023/04/02 18:33:59;;;;;;;13.60;10.20;;;;;;;3.44;100.00;99162.84;272276;1265;22544;-90
2023/04/02 18:40:34;;;;;;;15.90;10.40;;;;;;;3.41;100.00;99176.60;272626;1265;22522;-90
2023/04/02 18:46:47;;;;;;;20.80;12.10;;;;;;;3.40;100.00;99178.73;272491;1265;23053;-90
2023/04/02 18:52:53;;;;;;;16.20;10.90;;;;;;;3.39;100.00;99180.53;271931;1265;23821;-90
2023/04/02 18:59:10;;;;;;;15.00;8.90;;;;;;;3.39;100.00;99185.40;272143;1266;22231;-91
2023/04/02 19:05:22;;;;;;;;;;;;;;;3.39;100.00;99188.58;272923;1265;23307;-89
2023/04/02 19:11:35;;;;;;;14.30;10.40;;;;;;;3.43;100.00;99190.24;272289;1265;23820;-89
2023/04/02 19:17:44;;;;;;;18.80;12.30;;;;;;;3.49;100.00;99196.41;272493;1265;22670;-90
2023/04/02 19:24:47;;;;;;;16.70;12.30;;;;;;;3.52;100.00;99199.36;273180;1260;22708;-91
2023/04/02 19:31:24;;;;;;;19.70;12.90;;;;;;;3.54;100.00;99203.42;273366;1265;24392;-91
2023/04/02 19:37:43;;;;;;;19.50;12.20;;;;;;;3.57;100.00;99208.20;273205;1265;23351;-91
2023/04/02 19:43:53;;;;;;;20.60;12.60;;;;;;;3.54;100.00;99212.98;272947;1264;22533;-90
2023/04/02 19:50:22;;;;;;;15.40;10.20;;;;;;;3.52;100.00;99215.13;273705;1265;22584;-91
2023/04/02 19:56:30;;;;;;;18.10;11.10;;;;;;;3.50;100.00;99217.37;272868;1266;22524;-91
2023/04/02 20:02:33;;;;;;;10.90;8.10;;;;;;;3.45;100.00;99220.02;271538;1266;22552;-89
2023/04/02 20:08:35;;;;;;;10.90;7.30;;;;;;;3.35;100.00;99225.67;271067;1265;22553;-91
2023/04/02 20:14:41;;;;;;;13.40;8.20;;;;;;;3.28;100.00;99227.09;272758;1265;22538;-91
2023/04/02 20:20:50;;;;;;;9.50;7.10;;;;;;;3.25;100.00;99223.88;273396;1265;22576;-92
2023/04/02 20:27:10;;;;;;;11.80;8.00;;;;;;;3.28;100.00;99229.54;273404;1267;22503;-91
2023/04/02 20:33:13;;;;;;;11.80;7.10;;;;;;;3.25;100.00;99231.45;272509;1265;22511;-91
2023/04/02 20:39:26;;;;;;;8.70;6.70;;;;;;;3.21;100.00;99239.45;273059;1260;22593;-89
2023/04/02 20:45:54;;;;;;;9.10;5.90;;;;;;;3.17;100.00;99244.64;273519;1265;23098;-89
2023/04/02 20:51:56;;;;;;;8.40;5.90;;;;;;;3.16;100.00;99247.83;274115;1265;23275;-91
2023/04/02 20:58:04;;;;;;;29.70;7.00;;;;;;;3.18;100.00;99249.64;274081;1265;22396;-90
2023/04/02 21:04:08;;;;;;;8.50;5.90;;;;;;;3.24;100.00;99250.21;274105;1265;22312;-90
2023/04/02 21:10:14;;;;;;;7.70;5.10;;;;;;;3.22;100.00;99253.83;273905;1265;22498;-88
2023/04/02 21:16:21;;;;;;;7.90;5.20;;;;;;;3.13;100.00;99256.59;273587;1265;22489;-90
2023/04/02 21:22:40;;;;;;;7.90;5.50;;;;;;;3.10;100.00;99263.44;273891;1265;23317;-89
2023/04/02 21:28:45;;;;;;;11.50;5.90;;;;;;;3.12;100.00;99263.75;273925;1259;22394;-89
2023/04/02 21:34:47;;;;;;;10.20;5.00;;;;;;;3.11;100.00;99266.71;274121;1265;22346;-90
2023/04/02 21:41:22;;;;;;;8.90;5.10;;;;;;;3.08;100.00;99266.96;273799;1265;22324;-88
2023/04/02 21:47:43;;;;;;;;;;;;;;;;;;;;;
2023/04/02 21:53:59;;;;;;;10.90;5.40;;;;;;;2.87;100.00;99271.70;273563;1265;22368;-90
2023/04/02 22:00:24;;;;;;;8.40;4.50;;;;;;;2.81;100.00;99274.52;273766;1265;22403;-89
2023/04/02 22:06:40;;;;;;;5.00;3.40;;;;;;;2.76;100.00;99276.75;273975;1265;22393;-89
2023/04/02 22:12:45;;;;;;;15.70;5.90;;;;;;;2.72;100.00;99282.06;273842;1265;22430;-88
2023/04/02 22:19:00;;;;;;;17.20;6.10;;;;;;;2.66;100.00;99285.89;273985;1266;22333;-90
2023/04/02 22:25:03;;;;;;;20.40;6.40;;;;;;;2.63;100.00;99289.23;273875;1266;22311;-88
2023/04/02 22:31:18;;;;;;;8.10;4.50;;;;;;;2.61;100.00;99293.20;273966;1265;23028;-88
2023/04/02 22:37:34;;;;;;;7.80;5.70;;;;;;;2.58;100.00;99294.63;274041;1266;22329;-89
2023/04/02 22:44:02;;;;;;;23.30;9.60;;;;;;;2.60;100.00;99297.23;274073;1265;22345;-89
2023/04/02 22:50:16;;;;;;;10.20;5.20;;;;;;;2.61;100.00;99304.17;274213;1265;23093;-88
2023/04/02 22:56:27;;;;;;;7.60;4.80;;;;;;;2.61;100.00;99309.04;273904;1266;22318;-90
2023/04/02 23:02:34;;;;;;;5.80;4.30;;;;;;;2.56;100.00;99310.58;274276;1264;22376;-88
2023/04/02 23:08:38;;;;;;;8.30;5.20;;;;;;;2.53;100.00;99313.31;273813;1267;22495;-89
2023/04/02 23:14:41;;;;;;;15.60;6.00;;;;;;;2.47;100.00;99314.70;273659;1266;23184;-91
2023/04/02 23:20:43;;;;;;;10.40;4.70;;;;;;;2.36;100.00;99316.86;273609;1266;23536;-88
2023/04/02 23:26:45;;;;;;;18.30;6.00;;;;;;;2.27;100.00;99321.31;273455;1266;22880;-90
2023/04/02 23:32:48;;;;;;;8.20;4.20;;;;;;;2.20;100.00;99324.80;273511;1266;22328;-88
2023/04/02 23:38:55;;;;;;;7.50;4.00;;;;;;;2.14;100.00;99329.13;273791;1267;22420;-88
2023/04/02 23:45:01;;;;;;;12.80;5.70;;;;;;;2.07;100.00;99329.16;273796;1259;22328;-89
2023/04/02 23:51:03;;;;;;;6.70;3.50;;;;;;;2.02;100.00;99328.09;273777;1265;23016;-92
2023/04/02 23:57:16;;;;;;;9.50;4.80;;;;;;;2.00;100.00;99329.67;273816;1266;23445;-89
